Time;durP1;ratioP1;P1;durP2;ratioP2;P2;SDS_P1;SDS_P2;PMS_P1;PMS_P2;Temp;Humidity;BMP_temperature;BMP_pressure;BME280_temperature;BME280_humidity;BME280_pressure;Samples;Min_cycle;Max_cycle;Signal;HPM_P1;HPM_P2
2022/03/08 00:00:15;;;;;;;307.60;79.67;;;;;;;2.66;98.96;99540.66;342671;28;1506;-67
2022/03/08 00:00:27;;;;;;;308.05;79.60;;;;;;;2.62;99.36;99536.38;341469;29;976;-67
2022/03/08 00:00:37;;;;;;;307.50;79.25;;;;;;;2.62;98.80;99538.97;342132;28;2022;-67
2022/03/08 00:00:48;;;;;;;306.95;79.65;;;;;;;2.63;99.30;99540.69;340798;29;2147;-67
2022/03/08 00:00:58;;;;;;;306.17;79.77;;;;;;;2.62;98.52;99544.97;340932;29;2257;-68
2022/03/08 00:01:08;;;;;;;305.92;78.68;;;;;;;2.64;99.40;99534.63;341038;29;2118;-68
2022/03/08 00:01:20;;;;;;;306.30;77.27;;;;;;;2.64;99.36;99539.81;341468;28;1228;-68
2022/03/08 00:01:30;;;;;;;306.67;77.60;;;;;;;2.66;98.85;99535.47;344134;28;1342;-68
2022/03/08 00:01:41;;;;;;;305.87;77.80;;;;;;;2.67;99.26;99535.47;342733;28;940;-68
2022/03/08 00:01:51;;;;;;;307.17;78.90;;;;;;;2.67;98.62;99532.88;343994;28;1217;-68
2022/03/08 00:02:02;;;;;;;308.03;79.50;;;;;;;2.71;99.19;99540.59;345376;28;881;-68
2022/03/08 00:02:13;;;;;;;310.17;80.45;;;;;;;2.72;98.81;99532.84;341417;28;1498;-68
2022/03/08 00:02:23;;;;;;;308.67;80.40;;;;;;;2.76;99.15;99537.09;341404;28;2409;-68
2022/03/08 00:02:34;;;;;;;308.23;80.40;;;;;;;2.76;98.82;99534.50;342617;28;1321;-68
2022/03/08 00:02:44;;;;;;;307.47;80.30;;;;;;;2.78;99.13;99531.91;343711;28;888;-68
2022/03/08 00:02:54;;;;;;;307.77;79.78;;;;;;;2.80;98.65;99536.19;343439;28;1494;-68
2022/03/08 00:03:05;;;;;;;308.43;79.87;;;;;;;2.81;98.65;99535.31;342663;28;1573;-68
2022/03/08 00:03:15;;;;;;;306.23;79.15;;;;;;;2.83;98.36;99535.31;343974;28;869;-68
2022/03/08 00:03:26;;;;;;;307.00;80.40;;;;;;;2.83;98.79;99536.16;344145;28;977;-68
2022/03/08 00:03:37;;;;;;;306.27;79.88;;;;;;;2.84;97.82;99534.44;345463;28;1266;-68
2022/03/08 00:03:47;;;;;;;307.60;79.93;;;;;;;2.86;98.60;99541.31;344113;28;922;-68
2022/03/08 00:03:57;;;;;;;306.85;78.90;;;;;;;2.87;97.94;99539.56;342570;28;822;-68
2022/03/08 00:04:08;;;;;;;307.03;78.43;;;;;;;2.87;98.53;99537.84;342668;28;1452;-68
2022/03/08 00:04:18;;;;;;;306.52;78.32;;;;;;;2.88;98.48;99539.56;342404;28;1314;-68
2022/03/08 00:04:28;;;;;;;305.50;77.63;;;;;;;2.89;98.58;99536.09;342729;28;840;-68
2022/03/08 00:04:39;;;;;;;306.33;77.93;;;;;;;2.91;98.11;99530.91;341323;29;877;-68
2022/03/08 00:04:50;;;;;;;306.88;78.55;;;;;;;2.92;98.13;99536.06;341336;29;1011;-68
2022/03/08 00:05:00;;;;;;;308.40;79.87;;;;;;;2.94;98.05;99544.66;341460;29;854;-68
2022/03/08 00:05:11;;;;;;;307.85;80.20;;;;;;;2.95;98.36;99535.19;341044;29;2048;-68
2022/03/08 00:05:22;;;;;;;307.73;80.13;;;;;;;2.97;98.42;99542.03;342699;28;946;-68
2022/03/08 00:05:32;;;;;;;305.20;77.95;;;;;;;2.98;98.03;99537.72;341684;28;2054;-68
2022/03/08 00:05:43;;;;;;;305.13;77.28;;;;;;;2.99;97.69;99542.88;343887;28;1625;-68
2022/03/08 00:05:54;;;;;;;305.13;77.23;;;;;;;2.97;98.00;99547.22;342780;28;875;-68
2022/03/08 00:06:04;;;;;;;307.33;79.63;;;;;;;3.00;98.29;99541.16;343910;28;994;-68
2022/03/08 00:06:15;;;;;;;307.52;80.22;;;;;;;2.98;98.01;99541.16;342652;28;1276;-68
2022/03/08 00:06:26;;;;;;;306.67;78.75;;;;;;;2.95;98.15;99538.63;341381;29;975;-68
2022/03/08 00:06:37;;;;;;;305.20;77.20;;;;;;;2.92;98.06;99540.38;341408;29;942;-67
2022/03/08 00:06:48;;;;;;;305.73;77.25;;;;;;;2.88;97.60;99539.56;342577;28;1903;-67
2022/03/08 00:06:58;;;;;;;306.95;78.60;;;;;;;2.85;98.04;99534.41;342622;28;1390;-67
2022/03/08 00:07:09;;;;;;;307.42;78.90;;;;;;;2.84;97.71;99537.03;342707;28;1013;-68
2022/03/08 00:07:20;;;;;;;307.20;79.63;;;;;;;2.80;97.61;99533.63;341420;29;893;-68
2022/03/08 00:07:30;;;;;;;307.10;79.67;;;;;;;2.77;97.96;99541.41;339761;29;1733;-68
2022/03/08 00:07:41;;;;;;;306.60;79.53;;;;;;;2.78;98.36;99535.34;342661;28;1106;-68
2022/03/08 00:07:51;;;;;;;307.38;79.07;;;;;;;2.80;98.03;99536.19;342715;28;991;-68
2022/03/08 00:08:02;;;;;;;308.55;79.85;;;;;;;2.78;98.00;99537.94;342696;28;923;-68
2022/03/08 00:08:12;;;;;;;311.23;81.30;;;;;;;2.75;98.31;99535.38;340176;29;834;-68
2022/03/08 00:08:23;;;;;;;309.42;80.80;;;;;;;2.78;98.04;99534.50;341379;29;956;-68
2022/03/08 00:08:34;;;;;;;308.47;80.23;;;;;;;2.82;98.23;99538.75;342614;28;881;-68
2022/03/08 00:08:44;;;;;;;307.17;79.93;;;;;;;2.82;98.39;99542.19;345200;28;1212;-68
2022/03/08 00:08:55;;;;;;;306.47;79.60;;;;;;;2.82;98.73;99537.03;345524;28;806;-68
2022/03/08 00:09:05;;;;;;;305.35;78.43;;;;;;;2.81;98.23;99532.75;345348;28;917;-68
2022/03/08 00:09:15;;;;;;;305.63;78.50;;;;;;;2.82;98.38;99539.63;343943;28;2401;-68
2022/03/08 00:09:26;;;;;;;305.80;78.80;;;;;;;2.83;98.22;99543.91;343995;28;1279;-68
2022/03/08 00:09:37;;;;;;;306.85;79.25;;;;;;;2.84;98.52;99542.19;344093;28;1062;-68
2022/03/08 00:09:47;;;;;;;306.63;78.97;;;;;;;2.86;98.01;99543.03;342737;28;802;-68
2022/03/08 00:09:57;;;;;;;307.17;79.77;;;;;;;2.87;98.69;99537.84;339906;28;1115;-68
2022/03/08 00:10:08;;;;;;;306.58;79.57;;;;;;;2.88;98.03;99534.38;344014;28;950;-68
2022/03/08 00:10:19;;;;;;;306.48;79.95;;;;;;;2.90;98.39;99536.94;342761;28;2051;-68
2022/03/08 00:10:29;;;;;;;306.95;79.05;;;;;;;2.89;98.45;99537.81;343601;28;1021;-68
2022/03/08 00:10:40;;;;;;;306.53;78.47;;;;;;;2.87;98.14;99537.84;344018;28;1090;-68
2022/03/08 00:10:50;;;;;;;308.23;78.60;;;;;;;2.87;98.38;99537.84;343754;28;3757;-68
2022/03/08 00:11:03;;;;;;;309.90;80.57;;;;;;;2.88;97.93;99536.97;340995;28;1821;-68
2022/03/08 00:11:16;;;;;;;310.23;81.05;;;;;;;2.89;98.64;99535.25;343610;28;1474;-68
2022/03/08 00:11:26;;;;;;;306.45;79.20;;;;;;;2.86;97.78;99536.13;342676;28;920;-68
2022/03/08 00:11:37;;;;;;;306.03;79.13;;;;;;;2.83;98.09;99532.72;342655;28;1331;-68
2022/03/08 00:11:47;;;;;;;306.20;79.65;;;;;;;2.82;98.27;99533.59;344042;28;840;-68
2022/03/08 00:11:58;;;;;;;305.67;79.33;;;;;;;2.79;98.39;99534.47;345351;28;993;-68
2022/03/08 00:12:08;;;;;;;305.83;78.95;;;;;;;2.76;97.73;99539.69;345322;28;1023;-68
2022/03/08 00:12:18;;;;;;;305.50;77.87;;;;;;;2.72;98.05;99534.56;345441;28;909;-68
2022/03/08 00:12:29;;;;;;;307.55;79.40;;;;;;;2.74;98.51;99536.25;342076;28;1625;-68
2022/03/08 00:12:39;;;;;;;307.00;79.67;;;;;;;2.73;98.78;99533.69;344003;28;1231;-68
2022/03/08 00:12:50;;;;;;;307.20;80.35;;;;;;;2.73;97.83;99531.09;342712;28;923;-68
2022/03/08 00:13:00;;;;;;;306.07;79.27;;;;;;;2.72;97.99;99542.31;342726;28;951;-68
2022/03/08 00:13:10;;;;;;;305.80;78.35;;;;;;;2.70;98.88;99532.00;342746;28;925;-68
2022/03/08 00:13:21;;;;;;;305.37;77.77;;;;;;;2.68;98.79;99536.31;342731;28;1299;-68
2022/03/08 00:13:31;;;;;;;305.58;77.70;;;;;;;2.68;98.60;99533.75;341728;28;1007;-68
2022/03/08 00:13:42;;;;;;;306.33;78.93;;;;;;;2.67;99.08;99534.59;340146;29;939;-68
2022/03/08 00:13:52;;;;;;;305.92;78.78;;;;;;;2.66;98.10;99527.72;342783;28;853;-68
2022/03/08 00:14:03;;;;;;;306.07;79.47;;;;;;;2.69;98.79;99532.88;342619;28;1563;-68
2022/03/08 00:14:13;;;;;;;305.10;78.55;;;;;;;2.70;99.11;99529.41;342573;28;1503;-68
2022/03/08 00:14:23;;;;;;;305.93;78.97;;;;;;;2.72;98.73;99532.84;342721;28;798;-68
2022/03/08 00:14:34;;;;;;;304.88;78.10;;;;;;;2.76;98.99;99531.06;343925;28;1468;-70
2022/03/08 00:14:44;;;;;;;304.33;78.43;;;;;;;2.77;98.98;99536.22;344029;28;1103;-67
2022/03/08 00:14:55;;;;;;;304.00;78.65;;;;;;;2.80;98.74;99535.34;344006;28;951;-67
2022/03/08 00:15:08;;;;;;;305.00;79.60;;;;;;;2.82;98.88;99528.44;345041;28;2262;-67
2022/03/08 00:15:24;;;;;;;306.02;79.57;;;;;;;2.83;98.11;99531.00;343041;28;1748;-67
2022/03/08 00:15:34;;;;;;;307.48;79.70;;;;;;;2.82;98.40;99529.28;341259;28;1712;-67
2022/03/08 00:15:45;;;;;;;308.63;80.73;;;;;;;2.83;98.54;99530.13;342747;28;1164;-67
2022/03/08 00:15:55;;;;;;;308.13;80.25;;;;;;;2.83;98.85;99533.59;342316;28;1625;-67
2022/03/08 00:16:06;;;;;;;307.87;80.60;;;;;;;2.84;98.05;99532.72;342501;28;994;-67
2022/03/08 00:16:17;;;;;;;305.65;78.68;;;;;;;2.85;98.65;99534.41;342729;28;1258;-67
2022/03/08 00:16:27;;;;;;;304.20;77.90;;;;;;;2.82;98.71;99529.28;340118;29;993;-67
2022/03/08 00:16:38;;;;;;;302.73;76.10;;;;;;;2.82;97.79;99534.44;340044;29;937;-67
2022/03/08 00:16:48;;;;;;;303.17;76.35;;;;;;;2.82;98.24;99529.28;343946;28;1217;-67
2022/03/08 00:16:59;;;;;;;303.58;76.30;;;;;;;2.84;98.30;99537.88;344110;28;969;-67
2022/03/08 00:17:09;;;;;;;304.13;76.77;;;;;;;2.87;97.83;99530.09;342640;28;1514;-67
2022/03/08 00:17:20;;;;;;;304.53;77.50;;;;;;;2.86;98.05;99536.13;342452;28;1251;-67
2022/03/08 00:17:30;;;;;;;305.25;78.03;;;;;;;2.86;97.83;99541.31;342324;28;1755;-67
2022/03/08 00:17:40;;;;;;;306.10;78.73;;;;;;;2.88;98.09;99529.22;341264;28;1647;-68
2022/03/08 00:17:52;;;;;;;306.00;79.03;;;;;;;2.88;98.03;99534.38;344105;28;808;-68
2022/03/08 00:18:02;;;;;;;306.05;78.50;;;;;;;2.90;98.28;99526.63;342560;28;1043;-68
2022/03/08 00:18:13;;;;;;;305.33;77.80;;;;;;;2.92;98.26;99538.66;344139;28;853;-68
2022/03/08 00:18:23;;;;;;;306.23;78.13;;;;;;;2.94;97.88;99536.91;344104;28;960;-68
2022/03/08 00:18:35;;;;;;;304.38;77.47;;;;;;;2.95;97.70;99530.00;344144;28;962;-68
2022/03/08 00:18:47;;;;;;;305.15;78.65;;;;;;;2.95;98.34;99536.03;341213;28;1443;-68
2022/03/08 00:18:58;;;;;;;304.50;78.20;;;;;;;2.93;98.17;99534.34;345370;28;924;-68
2022/03/08 00:19:08;;;;;;;305.20;78.85;;;;;;;2.88;97.57;99534.38;343871;28;1182;-68
2022/03/08 00:19:19;;;;;;;304.23;77.30;;;;;;;2.83;97.96;99533.59;343993;28;964;-68
2022/03/08 00:19:29;;;;;;;304.20;77.53;;;;;;;2.82;97.78;99534.44;341896;28;2106;-68
2022/03/08 00:19:39;;;;;;;303.73;77.47;;;;;;;2.82;97.81;99534.44;342704;28;899;-68
2022/03/08 00:19:50;;;;;;;304.65;78.32;;;;;;;2.81;98.35;99527.56;341280;29;1462;-68
2022/03/08 00:20:01;;;;;;;305.27;79.03;;;;;;;2.77;98.33;99536.22;343486;28;2257;-68
2022/03/08 00:20:14;;;;;;;305.80;78.72;;;;;;;2.77;97.95;99532.78;343946;28;977;-68
2022/03/08 00:20:25;;;;;;;305.13;77.88;;;;;;;2.78;98.16;99540.53;342635;28;1049;-68
2022/03/08 00:20:35;;;;;;;304.63;77.07;;;;;;;2.79;98.29;99537.06;339938;29;1163;-68
2022/03/08 00:20:46;;;;;;;305.73;78.38;;;;;;;2.79;98.62;99531.03;342753;28;1022;-68
2022/03/08 00:20:56;;;;;;;305.37;78.73;;;;;;;2.79;98.16;99534.47;344181;28;1100;-68
2022/03/08 00:21:07;;;;;;;305.27;79.33;;;;;;;2.77;98.07;99523.31;344006;28;952;-68
2022/03/08 00:21:17;;;;;;;305.20;79.07;;;;;;;2.78;98.38;99530.19;341846;28;1006;-68
2022/03/08 00:21:28;;;;;;;305.63;78.10;;;;;;;2.80;98.29;99528.44;342606;28;1922;-68
2022/03/08 00:21:40;;;;;;;304.40;77.07;;;;;;;2.80;98.46;99528.44;342564;28;1256;-68
2022/03/08 00:21:50;;;;;;;303.42;76.90;;;;;;;2.81;98.23;99526.72;341408;29;759;-68
2022/03/08 00:22:00;;;;;;;303.30;77.53;;;;;;;2.82;98.17;99531.00;343916;28;1078;-68
2022/03/08 00:22:11;;;;;;;306.10;79.17;;;;;;;2.84;97.98;99530.13;343982;28;1306;-68
2022/03/08 00:22:21;;;;;;;306.13;78.95;;;;;;;2.87;97.69;99531.81;342535;28;2075;-68
2022/03/08 00:22:31;;;;;;;306.17;78.77;;;;;;;2.82;97.84;99524.13;342592;28;1401;-68
2022/03/08 00:22:42;;;;;;;304.10;77.53;;;;;;;2.81;98.30;99527.56;341311;29;927;-68
2022/03/08 00:22:52;;;;;;;305.77;78.87;;;;;;;2.79;97.98;99533.63;344031;28;928;-68
2022/03/08 00:23:03;;;;;;;306.10;79.43;;;;;;;2.78;98.22;99527.59;342658;28;1436;-68
2022/03/08 00:23:13;;;;;;;307.10;79.43;;;;;;;2.78;98.58;99522.44;344036;28;1201;-68
2022/03/08 00:23:24;;;;;;;306.85;79.07;;;;;;;2.79;98.56;99531.03;344028;28;1380;-68
2022/03/08 00:23:34;;;;;;;306.30;78.43;;;;;;;2.78;98.39;99527.59;342435;28;1356;-67
2022/03/08 00:23:45;;;;;;;305.92;78.65;;;;;;;2.74;98.32;99525.94;342606;28;917;-68
2022/03/08 00:23:58;;;;;;;305.30;78.93;;;;;;;2.72;98.09;99527.66;345392;28;864;-67
2022/03/08 00:24:08;;;;;;;304.83;79.15;;;;;;;2.71;98.42;99519.94;345255;28;1368;-67
2022/03/08 00:24:19;;;;;;;303.47;78.00;;;;;;;2.72;98.50;99525.09;343933;28;1074;-67
2022/03/08 00:24:29;;;;;;;305.52;78.88;;;;;;;2.70;99.06;99529.41;341457;29;914;-67
2022/03/08 00:24:40;;;;;;;305.87;79.23;;;;;;;2.68;98.68;99526.84;341416;29;890;-67
2022/03/08 00:24:50;;;;;;;305.77;79.22;;;;;;;2.68;98.22;99526.84;344062;28;2013;-67
2022/03/08 00:25:01;;;;;;;304.33;78.13;;;;;;;2.71;98.92;99531.13;344979;28;1203;-67
2022/03/08 00:25:12;;;;;;;304.60;77.97;;;;;;;2.74;98.81;99531.09;343914;28;1291;-67
2022/03/08 00:25:22;;;;;;;304.75;77.45;;;;;;;2.76;98.66;99520.75;342759;28;856;-67
2022/03/08 00:25:33;;;;;;;304.40;76.68;;;;;;;2.75;98.70;99527.63;340211;29;2439;-67
2022/03/08 00:25:43;;;;;;;304.10;76.37;;;;;;;2.77;98.61;99533.66;340060;29;901;-67
2022/03/08 00:25:54;;;;;;;304.10;76.88;;;;;;;2.76;98.83;99529.34;341353;28;2430;-67
2022/03/08 00:26:04;;;;;;;304.97;77.13;;;;;;;2.78;98.70;99527.59;342642;28;851;-67
2022/03/08 00:26:15;;;;;;;306.42;79.70;;;;;;;2.76;98.96;99529.34;345257;28;1228;-68
2022/03/08 00:26:26;;;;;;;306.70;79.72;;;;;;;2.76;99.20;99534.50;345411;28;869;-68
2022/03/08 00:26:36;;;;;;;304.92;79.32;;;;;;;2.74;99.01;99525.94;342669;28;1296;-68
2022/03/08 00:26:47;;;;;;;305.37;78.93;;;;;;;2.71;98.35;99530.25;344015;28;842;-68
2022/03/08 00:26:57;;;;;;;305.95;79.05;;;;;;;2.68;99.35;99526.84;342565;28;1985;-67
2022/03/08 00:27:07;;;;;;;307.40;80.23;;;;;;;2.69;98.57;99522.53;345295;28;1085;-68
2022/03/08 00:27:18;;;;;;;307.67;79.60;;;;;;;2.68;99.23;99526.84;342582;28;1290;-68
2022/03/08 00:27:28;;;;;;;306.83;79.07;;;;;;;2.70;99.43;99528.56;342209;28;1594;-68
2022/03/08 00:27:42;;;;;;;305.83;78.65;;;;;;;2.70;98.57;99521.66;343745;28;1129;-68
2022/03/08 00:27:52;;;;;;;306.40;79.20;;;;;;;2.72;98.88;99525.09;345294;28;1483;-68
2022/03/08 00:28:03;;;;;;;307.10;78.78;;;;;;;2.72;99.00;99531.97;342695;28;838;-68
2022/03/08 00:28:14;;;;;;;305.90;78.30;;;;;;;2.69;98.79;99525.13;341405;29;897;-68
2022/03/08 00:28:24;;;;;;;306.97;78.83;;;;;;;2.69;99.02;99532.88;341322;29;1173;-68
2022/03/08 00:28:34;;;;;;;307.55;79.65;;;;;;;2.67;99.16;99532.03;343918;28;1235;-68
2022/03/08 00:28:45;;;;;;;307.23;79.70;;;;;;;2.67;98.97;99524.28;341292;29;889;-68
2022/03/08 00:28:55;;;;;;;306.90;79.43;;;;;;;2.68;99.22;99532.00;342715;28;1320;-68
2022/03/08 00:29:05;;;;;;;305.52;78.75;;;;;;;2.70;99.12;99529.41;345393;28;1326;-67
2022/03/08 00:29:16;;;;;;;305.57;79.00;;;;;;;2.70;99.30;99529.41;344475;28;1267;-67
2022/03/08 00:29:26;;;;;;;306.30;79.00;;;;;;;2.68;99.42;99531.16;342640;28;1389;-67
2022/03/08 00:29:37;;;;;;;307.80;79.73;;;;;;;2.66;99.34;99527.72;341178;28;2247;-67
2022/03/08 00:29:47;;;;;;;308.23;79.35;;;;;;;2.64;98.98;99529.47;342602;28;2192;-67
2022/03/08 00:29:57;;;;;;;307.50;79.57;;;;;;;2.62;99.29;99536.38;345309;28;798;-67
2022/03/08 00:30:08;;;;;;;306.88;79.35;;;;;;;2.55;98.94;99534.75;342234;28;1332;-67
2022/03/08 00:30:21;;;;;;;307.38;79.72;;;;;;;2.48;99.45;99528.78;341207;29;1172;-67
2022/03/08 00:30:31;;;;;;;307.77;79.80;;;;;;;2.54;99.80;99539.06;344062;28;909;-67
2022/03/08 00:30:41;;;;;;;308.50;80.30;;;;;;;2.59;99.50;99539.03;344053;28;790;-67
2022/03/08 00:30:52;;;;;;;306.85;79.55;;;;;;;2.63;99.34;99530.34;342714;28;1798;-67
2022/03/08 00:31:02;;;;;;;305.73;78.43;;;;;;;2.66;99.44;99540.66;345192;28;1136;-67
2022/03/08 00:31:13;;;;;;;305.92;78.78;;;;;;;2.69;99.52;99527.69;341279;29;1441;-67
2022/03/08 00:31:23;;;;;;;307.17;79.97;;;;;;;2.72;99.48;99530.25;343898;28;1383;-67
2022/03/08 00:31:33;;;;;;;306.65;79.50;;;;;;;2.72;99.23;99532.84;344039;28;940;-68
2022/03/08 00:31:44;;;;;;;305.53;78.40;;;;;;;2.72;98.63;99530.25;345724;28;1605;-68
2022/03/08 00:31:54;;;;;;;305.88;78.78;;;;;;;2.73;99.07;99534.53;344035;28;980;-68
2022/03/08 00:32:05;;;;;;;306.33;79.63;;;;;;;2.72;99.26;99534.56;343844;28;1196;-68
2022/03/08 00:32:16;;;;;;;306.90;80.18;;;;;;;2.72;99.25;99532.84;344072;28;1238;-68
2022/03/08 00:32:26;;;;;;;306.52;79.93;;;;;;;2.70;98.56;99529.41;341161;29;2106;-68
2022/03/08 00:32:36;;;;;;;307.07;79.97;;;;;;;2.66;98.88;99532.91;342262;28;1540;-68
2022/03/08 00:32:47;;;;;;;307.40;79.70;;;;;;;2.64;98.93;99529.47;342754;28;976;-68
2022/03/08 00:32:57;;;;;;;307.00;79.17;;;;;;;2.62;99.12;99526.03;341291;28;1189;-68
2022/03/08 00:33:08;;;;;;;306.35;78.57;;;;;;;2.60;98.95;99525.25;341404;29;876;-67
2022/03/08 00:33:19;;;;;;;305.60;78.60;;;;;;;2.60;99.30;99533.00;341413;29;937;-67
2022/03/08 00:33:30;;;;;;;305.92;76.95;;;;;;;2.62;98.79;99532.06;343278;28;1371;-67
2022/03/08 00:33:41;;;;;;;305.83;76.70;;;;;;;2.60;98.74;99533.00;343971;28;898;-68
2022/03/08 00:33:51;;;;;;;305.40;76.13;;;;;;;2.62;98.89;99536.38;344116;28;1407;-68
2022/03/08 00:34:03;;;;;;;306.60;77.63;;;;;;;2.63;98.69;99535.50;343954;28;987;-68
2022/03/08 00:34:14;;;;;;;307.48;77.75;;;;;;;2.63;98.81;99535.50;342647;28;1534;-68
2022/03/08 00:34:24;;;;;;;308.23;78.27;;;;;;;2.63;98.95;99530.34;342129;28;1758;-68
2022/03/08 00:34:34;;;;;;;306.70;77.80;;;;;;;2.64;98.94;99525.16;341276;29;1092;-68
2022/03/08 00:34:45;;;;;;;305.87;77.17;;;;;;;2.64;98.68;99529.47;341381;29;1263;-68
2022/03/08 00:34:55;;;;;;;304.85;76.20;;;;;;;2.60;98.58;99526.06;341321;29;1236;-68
2022/03/08 00:35:06;;;;;;;305.77;77.13;;;;;;;2.60;99.01;99527.81;343836;28;1529;-68
2022/03/08 00:35:16;;;;;;;307.27;78.45;;;;;;;2.58;99.47;99526.97;343900;28;1634;-68
2022/03/08 00:35:27;;;;;;;307.00;78.00;;;;;;;2.59;98.64;99532.13;342597;28;1105;-68
2022/03/08 00:35:37;;;;;;;305.93;77.60;;;;;;;2.59;99.44;99531.28;342697;28;1003;-68
2022/03/08 00:35:48;;;;;;;305.65;77.10;;;;;;;2.57;99.66;99530.44;341412;29;869;-68
2022/03/08 00:35:58;;;;;;;304.83;76.90;;;;;;;2.58;99.04;99519.22;342248;28;1953;-68
2022/03/08 00:36:08;;;;;;;303.83;75.93;;;;;;;2.53;99.21;99526.16;341318;29;1194;-68
2022/03/08 00:36:20;;;;;;;303.20;75.72;;;;;;;2.54;98.85;99522.72;342662;28;928;-68
2022/03/08 00:36:31;;;;;;;304.42;76.63;;;;;;;2.55;99.39;99524.44;343328;28;837;-68
2022/03/08 00:36:41;;;;;;;306.47;77.03;;;;;;;2.56;99.36;99531.31;342521;28;2129;-68
2022/03/08 00:36:51;;;;;;;307.85;77.80;;;;;;;2.54;99.12;99520.13;341287;28;1188;-68
2022/03/08 00:37:02;;;;;;;306.50;77.50;;;;;;;2.55;99.26;99524.44;340126;29;890;-68
2022/03/08 00:37:13;;;;;;;304.77;77.20;;;;;;;2.52;99.02;99525.31;339983;29;1046;-68
2022/03/08 00:37:23;;;;;;;304.63;76.75;;;;;;;2.50;99.29;99521.03;340192;29;1959;-68
2022/03/08 00:37:33;;;;;;;305.53;76.83;;;;;;;2.53;99.45;99526.16;342854;28;904;-68
2022/03/08 00:37:44;;;;;;;305.25;76.80;;;;;;;2.51;99.76;99523.59;343701;28;1457;-68
2022/03/08 00:37:55;;;;;;;306.03;78.10;;;;;;;2.47;99.40;99523.63;345374;28;968;-67
2022/03/08 00:38:05;;;;;;;307.27;78.20;;;;;;;2.44;99.53;99531.41;345232;28;1168;-67
2022/03/08 00:38:16;;;;;;;308.50;78.50;;;;;;;2.41;99.78;99526.28;343827;28;1523;-68
2022/03/08 00:38:26;;;;;;;307.47;77.87;;;;;;;2.40;99.40;99524.56;343831;28;854;-68
2022/03/08 00:38:36;;;;;;;305.87;78.40;;;;;;;2.41;100.00;99521.13;342613;28;870;-68
2022/03/08 00:38:47;;;;;;;306.95;78.82;;;;;;;2.42;100.00;99521.09;344016;28;948;-68
2022/03/08 00:38:57;;;;;;;307.60;79.20;;;;;;;2.44;99.85;99521.09;341299;28;1418;-68
2022/03/08 00:39:08;;;;;;;307.40;78.53;;;;;;;2.46;99.83;99527.09;344949;28;1671;-68
2022/03/08 00:39:18;;;;;;;308.00;79.03;;;;;;;2.49;100.00;99524.47;345629;28;1559;-68
2022/03/08 00:39:29;;;;;;;307.38;78.70;;;;;;;2.48;99.57;99527.94;346281;28;1239;-68
2022/03/08 00:39:39;;;;;;;307.30;78.43;;;;;;;2.45;99.74;99527.97;341520;28;1311;-68
2022/03/08 00:39:50;;;;;;;304.93;76.93;;;;;;;2.43;99.73;99524.53;342714;28;937;-68
2022/03/08 00:40:00;;;;;;;306.83;77.38;;;;;;;2.41;99.80;99527.13;341108;29;2406;-67
2022/03/08 00:40:11;;;;;;;306.40;76.97;;;;;;;2.41;99.94;99528.84;343943;28;1307;-67
2022/03/08 00:40:22;;;;;;;307.17;77.15;;;;;;;2.37;100.00;99525.44;342704;28;947;-67
2022/03/08 00:40:32;;;;;;;306.98;77.70;;;;;;;2.41;100.00;99521.13;340176;29;949;-67
2022/03/08 00:40:43;;;;;;;308.23;78.47;;;;;;;2.37;100.00;99527.19;341449;29;927;-67
2022/03/08 00:40:53;;;;;;;307.63;79.05;;;;;;;2.39;100.00;99522.84;342727;28;933;-67
2022/03/08 00:41:03;;;;;;;306.43;78.53;;;;;;;2.40;99.81;99516.81;343697;28;1794;-67
2022/03/08 00:41:14;;;;;;;305.08;77.40;;;;;;;2.41;100.00;99521.13;343872;28;1238;-67
2022/03/08 00:41:25;;;;;;;305.03;77.13;;;;;;;2.40;100.00;99524.56;343996;28;884;-67
2022/03/08 00:41:37;;;;;;;305.80;76.65;;;;;;;2.40;100.00;99519.41;342651;28;1564;-67
2022/03/08 00:41:47;;;;;;;307.48;77.65;;;;;;;2.42;100.00;99522.81;343890;28;1408;-67
2022/03/08 00:41:58;;;;;;;307.80;78.83;;;;;;;2.36;100.00;99528.91;346538;28;1358;-67
2022/03/08 00:42:11;;;;;;;308.83;79.97;;;;;;;2.36;99.89;99525.47;342205;28;2069;-67
2022/03/08 00:42:22;;;;;;;308.80;80.10;;;;;;;2.28;100.00;99528.97;341168;28;2398;-67
2022/03/08 00:42:33;;;;;;;308.77;79.40;;;;;;;2.30;100.00;99522.06;343435;28;1497;-67
2022/03/08 00:42:43;;;;;;;306.60;78.40;;;;;;;2.31;100.00;99526.34;342657;28;1307;-67
2022/03/08 00:42:54;;;;;;;306.07;78.23;;;;;;;2.34;100.00;99526.34;341337;29;1487;-67
2022/03/08 00:43:04;;;;;;;305.48;77.80;;;;;;;2.38;100.00;99521.16;341388;29;964;-67
2022/03/08 00:43:15;;;;;;;307.20;78.23;;;;;;;2.40;100.00;99519.41;342335;28;1387;-67
2022/03/08 00:43:25;;;;;;;307.55;77.55;;;;;;;2.42;100.00;99522.81;342653;28;1047;-67
2022/03/08 00:43:35;;;;;;;307.07;77.07;;;;;;;2.43;100.00;99520.22;342699;28;855;-67
2022/03/08 00:43:46;;;;;;;306.00;77.07;;;;;;;2.42;100.00;99523.69;342581;28;1339;-69
2022/03/08 00:43:56;;;;;;;307.33;78.20;;;;;;;2.38;100.00;99522.00;338517;28;1939;-68
2022/03/08 00:44:07;;;;;;;308.60;80.00;;;;;;;2.33;100.00;99519.47;340996;29;1330;-68
2022/03/08 00:44:17;;;;;;;310.60;81.50;;;;;;;2.34;100.00;99523.75;342562;28;1006;-68
2022/03/08 00:44:27;;;;;;;311.35;82.78;;;;;;;2.36;100.00;99518.56;342634;28;1126;-68
2022/03/08 00:44:39;;;;;;;310.23;81.50;;;;;;;2.38;100.00;99519.41;342511;28;1975;-68
2022/03/08 00:44:49;;;;;;;307.90;80.00;;;;;;;2.41;100.00;99518.53;342485;28;1619;-68
2022/03/08 00:45:00;;;;;;;306.67;79.47;;;;;;;2.37;100.00;99514.25;345284;28;902;-67
2022/03/08 00:45:10;;;;;;;307.17;79.50;;;;;;;2.38;100.00;99515.97;344050;28;904;-67
2022/03/08 00:45:21;;;;;;;307.13;78.93;;;;;;;2.33;100.00;99524.63;342596;28;1215;-67
2022/03/08 00:45:31;;;;;;;306.73;78.65;;;;;;;2.33;100.00;99522.03;340217;28;974;-67
2022/03/08 00:45:41;;;;;;;306.00;78.70;;;;;;;2.28;100.00;99518.63;340015;29;1325;-67
2022/03/08 00:45:53;;;;;;;306.92;79.10;;;;;;;2.26;100.00;99515.22;340019;29;922;-67
2022/03/08 00:46:03;;;;;;;308.40;79.88;;;;;;;2.24;100.00;99516.94;342121;28;1523;-67
2022/03/08 00:46:15;;;;;;;311.03;81.13;;;;;;;2.25;100.00;99521.25;343659;28;1928;-67
2022/03/08 00:46:25;;;;;;;310.33;80.03;;;;;;;2.25;100.00;99516.09;342693;28;873;-67
2022/03/08 00:46:36;;;;;;;310.67;80.93;;;;;;;2.28;100.00;99513.47;343912;28;1680;-67
2022/03/08 00:46:46;;;;;;;310.57;81.37;;;;;;;2.31;100.00;99515.19;342638;28;1052;-68
2022/03/08 00:46:57;;;;;;;311.52;81.57;;;;;;;2.32;100.00;99515.16;345372;28;1958;-66
2022/03/08 00:47:07;;;;;;;311.23;80.63;;;;;;;2.34;100.00;99512.56;345260;28;1286;-67
2022/03/08 00:47:18;;;;;;;309.63;79.60;;;;;;;2.35;100.00;99522.03;345289;28;887;-67
2022/03/08 00:47:28;;;;;;;309.10;79.57;;;;;;;2.36;100.00;99517.72;344737;28;1949;-67
2022/03/08 00:47:39;;;;;;;307.80;78.87;;;;;;;2.38;100.00;99521.16;342697;28;1350;-67
2022/03/08 00:47:49;;;;;;;308.30;79.97;;;;;;;2.37;100.00;99514.25;343969;28;1593;-67
2022/03/08 00:48:00;;;;;;;307.23;79.20;;;;;;;2.39;100.00;99517.69;342629;28;1166;-67
2022/03/08 00:48:10;;;;;;;306.50;78.32;;;;;;;2.43;100.00;99516.78;342570;28;1674;-67
2022/03/08 00:48:21;;;;;;;305.13;76.47;;;;;;;2.43;100.00;99519.38;342650;28;811;-67
2022/03/08 00:48:31;;;;;;;305.90;76.95;;;;;;;2.45;100.00;99512.47;341321;28;1222;-67
2022/03/08 00:48:42;;;;;;;307.27;78.07;;;;;;;2.44;100.00;99521.09;342581;28;1189;-68
2022/03/08 00:48:52;;;;;;;309.00;79.93;;;;;;;2.44;100.00;99521.09;344850;28;2154;-68
2022/03/08 00:49:03;;;;;;;309.35;80.32;;;;;;;2.47;100.00;99521.91;345192;28;1494;-68
2022/03/08 00:49:13;;;;;;;309.77;80.83;;;;;;;2.48;100.00;99521.03;342613;28;1053;-68
2022/03/08 00:49:24;;;;;;;308.20;79.65;;;;;;;2.48;100.00;99522.78;343682;28;2034;-68
2022/03/08 00:49:34;;;;;;;307.67;79.23;;;;;;;2.48;100.00;99517.59;343789;28;2525;-68
2022/03/08 00:49:44;;;;;;;307.70;79.25;;;;;;;2.51;100.00;99517.56;343976;28;1460;-66
2022/03/08 00:49:55;;;;;;;308.33;79.57;;;;;;;2.51;100.00;99518.44;343879;28;1631;-66
2022/03/08 00:50:16;;;;;;;308.13;78.97;;;;;;;2.52;100.00;99511.53;345376;28;940;-67
2022/03/08 00:50:27;;;;;;;307.05;78.70;;;;;;;2.51;100.00;99521.00;341278;29;1146;-67